This is the latest recevied weather packets stored in our database for station/object EA4IAJ-12. If no packets are shown the sender has not sent any weather packets the latest 10 day(s).
| Time | Temp. | Humidity | Pressure | Rain* | Wind** | Luminosity | Snow |
|---|---|---|---|---|---|---|---|
| 1777974337 | 21.67° C | 100% | 1036.9 hPa | - | - | - | - |
| 1777973436 | 21.11° C | 100% | 1035.6 hPa | - | - | - | - |
| 1777972536 | 18.33° C | 100% | 1023.5 hPa | - | - | - | - |
| 1777971635 | 18.89° C | 100% | 1026.8 hPa | - | - | - | - |
| 1777970735 | 20.56° C | 100% | 1032.7 hPa | - | - | - | - |
| 1777969834 | 19.44° C | 100% | 1028.6 hPa | - | - | - | - |
| 1777968934 | 16.67° C | 100% | 1017.8 hPa | - | - | - | - |
| 1777968033 | 15.56° C | 100% | 1013.6 hPa | - | - | - | - |
| 1777967132 | 15.56° C | 100% | 1013.1 hPa | - | - | - | - |
| 1777966232 | 15.56° C | 100% | 1014.2 hPa | - | - | - | - |
| 1777965331 | 16.11° C | 100% | 1014.7 hPa | - | - | - | - |
| 1777964431 | 14.44° C | 100% | 1009.4 hPa | - | - | - | - |
| 1777963530 | 13.89° C | 100% | 1007.7 hPa | - | - | - | - |
| 1777962629 | 12.78° C | 100% | 1003.5 hPa | - | - | - | - |
| 1777961729 | 11.67° C | 100% | 998.7 hPa | - | - | - | - |
| 1777960828 | 11.11° C | 100% | 997 hPa | - | - | - | - |
| 1777959928 | 10.56° C | 99% | 993.1 hPa | - | - | - | - |
| 1777959027 | 9.44° C | 98% | 990.1 hPa | - | - | - | - |
| 1777958127 | 8.33° C | 95% | 986.3 hPa | - | - | - | - |
| 1777957226 | 8.89° C | 95% | 988.1 hPa | - | - | - | - |
| 1777956326 | 9.44° C | 95% | 988.7 hPa | - | - | - | - |
| 1777955425 | 9.44° C | 95% | 989.1 hPa | - | - | - | - |
| 1777954524 | 10° C | 95% | 991 hPa | - | - | - | - |
| 1777953624 | 10.56° C | 95% | 992.8 hPa | - | - | - | - |
| 1777952736 | 10.56° C | 94% | 993 hPa | - | - | - | - |
* Rain since midnight (hover to see other rain measurements)
** Current wind speed in m/s (hover to see current wind gust speed)